Time;durP1;ratioP1;P1;durP2;ratioP2;P2;SDS_P1;SDS_P2;PMS_P1;PMS_P2;Temp;Humidity;BMP_temperature;BMP_pressure;BME280_temperature;BME280_humidity;BME280_pressure;Samples;Min_cycle;Max_cycle;Signal;HPM_P1;HPM_P2
2023/07/21 00:05:07;;;;;;;1.88;0.47;;;;;;;22.74;41.61;101195.91;16101866;19;131108;-51
2023/07/21 00:10:29;;;;;;;2.45;0.60;;;;;;;22.73;41.31;101194.22;16101371;19;129572;-47
2023/07/21 00:15:52;;;;;;;2.08;0.60;;;;;;;22.72;41.48;101191.66;16103908;19;131108;-53
2023/07/21 00:21:14;;;;;;;1.13;0.57;;;;;;;22.71;41.75;101190.84;16105457;19;129585;-50
2023/07/21 00:26:36;;;;;;;1.85;0.70;;;;;;;22.71;41.34;101195.56;16103174;19;130905;-48
2023/07/21 00:31:58;;;;;;;1.42;0.60;;;;;;;22.70;41.56;101189.16;16106492;19;129789;-52
2023/07/21 00:37:22;;;;;;;1.42;0.52;;;;;;;22.70;41.51;101177.19;16113985;19;131067;-49
2023/07/21 00:42:44;;;;;;;0.63;0.50;;;;;;;22.69;41.82;101181.91;16124650;19;130318;-53
2023/07/21 00:48:09;;;;;;;2.33;0.60;;;;;;;22.68;41.78;101166.28;16116937;19;129694;-51
2023/07/21 00:53:33;;;;;;;0.65;0.50;;;;;;;22.67;41.42;101159.00;16124312;19;130633;-52
2023/07/21 00:58:55;;;;;;;1.50;0.57;;;;;;;22.66;41.71;101157.31;16117017;19;131807;-51
2023/07/21 01:04:18;;;;;;;1.42;0.60;;;;;;;22.66;41.38;101159.28;16119609;19;131240;-48
2023/07/21 01:09:42;;;;;;;1.95;0.70;;;;;;;22.65;41.90;101150.06;16121285;19;130444;-53
2023/07/21 01:15:04;;;;;;;1.33;0.50;;;;;;;22.64;41.52;101151.22;16117886;19;129752;-54
2023/07/21 01:20:28;;;;;;;0.52;0.40;;;;;;;22.64;41.61;101145.63;16120160;19;129443;-52
2023/07/21 01:25:52;;;;;;;0.93;0.40;;;;;;;22.64;41.66;101150.34;16116426;19;130115;-50
2023/07/21 01:31:16;;;;;;;1.17;0.68;;;;;;;22.62;41.52;101153.41;16115886;19;129952;-51
2023/07/21 01:36:39;;;;;;;0.70;0.50;;;;;;;22.62;41.34;101146.97;16118472;19;129884;-51
2023/07/21 01:42:02;;;;;;;0.45;0.38;;;;;;;22.62;41.82;101145.06;16114627;19;130199;-55
2023/07/21 01:47:26;;;;;;;1.48;0.50;;;;;;;22.61;41.54;101140.59;16116669;19;129484;-52
2023/07/21 01:52:48;;;;;;;2.05;0.60;;;;;;;22.59;41.60;101131.63;16119386;19;129803;-52
2023/07/21 01:58:13;;;;;;;0.73;0.40;;;;;;;22.59;41.64;101123.28;16118061;19;129639;-50
2023/07/21 02:03:36;;;;;;;0.40;0.40;;;;;;;22.58;41.48;101118.81;16115504;19;131874;-56
2023/07/21 02:08:58;;;;;;;0.70;0.50;;;;;;;22.57;41.34;101122.69;16115820;19;130080;-52
2023/07/21 02:14:22;;;;;;;0.45;0.40;;;;;;;22.57;41.34;101117.13;16116337;19;132788;-54
2023/07/21 02:19:44;;;;;;;1.58;0.43;;;;;;;22.55;41.85;101113.75;16117419;19;130058;-54
2023/07/21 02:25:09;;;;;;;0.70;0.38;;;;;;;22.54;41.36;101100.91;16117884;19;129800;-50
2023/07/21 02:30:30;;;;;;;1.00;0.40;;;;;;;22.54;41.51;101103.72;16115820;19;130004;-53
2023/07/21 02:35:52;;;;;;;0.40;0.30;;;;;;;22.53;41.90;101099.25;16118862;19;129917;-53
2023/07/21 02:41:15;;;;;;;0.75;0.40;;;;;;;22.52;41.72;101103.16;16114169;19;129675;-53
2023/07/21 02:46:37;;;;;;;0.55;0.40;;;;;;;22.52;41.61;101100.38;16121736;19;130871;-54
2023/07/21 02:51:59;;;;;;;0.30;0.30;;;;;;;22.50;41.54;101095.06;16116860;19;129800;-53
2023/07/21 02:57:22;;;;;;;0.22;0.22;;;;;;;22.50;41.95;101094.22;16109076;19;130717;-53
2023/07/21 03:02:44;;;;;;;0.65;0.30;;;;;;;22.49;41.78;101098.13;16108739;19;130264;-51
2023/07/21 03:08:07;;;;;;;0.93;0.45;;;;;;;22.50;41.74;101102.59;16112615;19;130093;-54
2023/07/21 03:13:29;;;;;;;0.50;0.30;;;;;;;22.49;41.82;101100.91;16116356;19;131161;-54
2023/07/21 03:18:51;;;;;;;0.82;0.40;;;;;;;22.47;41.61;101100.34;16115162;19;131385;-53
2023/07/21 03:24:14;;;;;;;0.88;0.60;;;;;;;22.46;41.88;101102.28;16112475;19;129608;-51
2023/07/21 03:29:36;;;;;;;1.35;0.52;;;;;;;22.46;41.63;101096.72;16111704;19;130811;-52
2023/07/21 03:34:58;;;;;;;0.80;0.50;;;;;;;22.44;41.70;101088.59;16108648;19;130458;-53
2023/07/21 03:40:19;;;;;;;0.30;0.30;;;;;;;22.45;41.55;101092.25;16109355;19;130696;-54
2023/07/21 03:45:41;;;;;;;0.47;0.40;;;;;;;22.44;42.10;101085.00;16113228;19;131526;-55
2023/07/21 03:51:05;;;;;;;0.30;0.30;;;;;;;22.42;41.71;101079.66;16108579;19;129824;-54
2023/07/21 03:56:27;;;;;;;0.38;0.38;;;;;;;22.41;41.45;101075.19;16110102;19;131381;-54
2023/07/21 04:01:49;;;;;;;0.52;0.30;;;;;;;22.41;41.76;101075.19;16109560;19;130293;-53
2023/07/21 04:07:12;;;;;;;0.68;0.50;;;;;;;22.41;41.80;101071.59;16112575;19;130713;-54
2023/07/21 04:12:34;;;;;;;0.88;0.50;;;;;;;22.40;41.74;101076.31;16124679;19;131096;-53
2023/07/21 04:17:56;;;;;;;1.58;0.32;;;;;;;22.39;41.87;101066.28;16121984;19;129739;-54
2023/07/21 04:23:18;;;;;;;0.40;0.40;;;;;;;22.37;41.81;101060.13;16124432;19;130489;-52
2023/07/21 04:28:41;;;;;;;0.73;0.30;;;;;;;22.36;41.82;101055.66;16119393;19;129763;-52
2023/07/21 04:34:03;;;;;;;0.80;0.40;;;;;;;22.37;41.58;101050.91;16119406;19;130777;-56
2023/07/21 04:39:26;;;;;;;0.57;0.30;;;;;;;22.36;41.71;101058.47;16119093;19;129463;-54
2023/07/21 04:44:49;;;;;;;0.40;0.30;;;;;;;22.35;41.76;101051.19;16119588;19;130234;-52
2023/07/21 04:50:11;;;;;;;0.30;0.30;;;;;;;22.35;42.01;101054.00;16117762;19;131257;-51
2023/07/21 04:55:33;;;;;;;0.40;0.30;;;;;;;22.34;41.80;101045.91;16123895;19;131263;-53
2023/07/21 05:00:55;;;;;;;0.50;0.40;;;;;;;22.34;41.80;101049.50;16121255;19;133877;-54
2023/07/21 05:06:17;;;;;;;0.50;0.40;;;;;;;22.33;41.83;101053.41;16113193;19;130295;-52
2023/07/21 05:11:43;;;;;;;0.90;0.50;;;;;;;22.32;41.87;101060.09;16113932;19;130816;-54
2023/07/21 05:17:05;;;;;;;0.22;0.20;;;;;;;22.33;41.81;101055.38;16114541;19;131602;-53
2023/07/21 05:22:27;;;;;;;0.60;0.38;;;;;;;22.32;42.10;101059.25;16110506;19;130091;-52
2023/07/21 05:27:49;;;;;;;0.40;0.40;;;;;;;22.31;41.89;101058.41;16110642;19;131162;-55
2023/07/21 05:33:11;;;;;;;0.35;0.35;;;;;;;22.30;41.92;101067.88;16112397;19;129625;-50
2023/07/21 05:38:35;;;;;;;0.55;0.40;;;;;;;22.30;41.80;101073.44;16108733;19;130838;-52
2023/07/21 05:43:58;;;;;;;0.50;0.30;;;;;;;22.30;41.98;101084.59;16114353;19;131195;-48
2023/07/21 05:49:20;;;;;;;0.50;0.30;;;;;;;22.31;41.72;101089.06;16113698;19;130291;-51
2023/07/21 05:54:42;;;;;;;0.57;0.40;;;;;;;22.30;41.71;101087.38;16110212;19;129841;-46
2023/07/21 06:00:04;;;;;;;0.47;0.30;;;;;;;22.28;42.05;101093.25;15957857;19;2973512;-54
2023/07/21 06:05:26;;;;;;;0.40;0.38;;;;;;;22.28;41.96;101084.88;16114772;19;130695;-50
2023/07/21 06:10:48;;;;;;;0.35;0.30;;;;;;;22.29;42.19;101071.75;16115780;19;130322;-53
2023/07/21 06:16:10;;;;;;;0.20;0.20;;;;;;;22.27;42.34;101072.03;16115709;19;129637;-48
2023/07/21 06:21:32;;;;;;;0.38;0.30;;;;;;;22.27;41.95;101074.00;16115881;19;130617;-47
2023/07/21 06:26:54;;;;;;;0.75;0.30;;;;;;;22.27;42.00;101074.00;16113456;19;131046;-54
2023/07/21 06:32:16;;;;;;;0.60;0.30;;;;;;;22.25;41.87;101062.28;16107991;19;129520;-52
2023/07/21 06:37:38;;;;;;;0.38;0.30;;;;;;;22.25;41.82;101059.50;16112225;19;130562;-49
2023/07/21 06:43:00;;;;;;;0.43;0.25;;;;;;;22.26;42.22;101058.38;16114558;19;131133;-49
2023/07/21 06:48:23;;;;;;;0.80;0.40;;;;;;;22.26;42.12;101050.84;16108381;19;129989;-53
2023/07/21 06:53:45;;;;;;;0.73;0.40;;;;;;;22.25;41.89;101049.19;16113275;19;129766;-48
2023/07/21 06:59:07;;;;;;;0.40;0.40;;;;;;;22.25;41.83;101045.56;16108822;19;131649;-52
2023/07/21 07:04:29;;;;;;;0.50;0.40;;;;;;;22.35;41.67;101048.41;16110502;19;130445;-51
2023/07/21 07:09:51;;;;;;;2.15;0.30;;;;;;;22.49;41.42;101045.16;16112009;19;130003;-49
2023/07/21 07:15:13;;;;;;;3.08;0.43;;;;;;;22.59;41.84;101048.00;16106248;19;130768;-48
2023/07/21 07:20:35;;;;;;;1.92;0.73;;;;;;;22.70;41.76;101052.50;16109097;19;133230;-52
2023/07/21 07:25:57;;;;;;;1.45;0.60;;;;;;;22.79;41.21;101043.59;16109778;19;130422;-48
2023/07/21 07:31:19;;;;;;;0.70;0.70;;;;;;;22.82;41.45;101045.88;16110933;19;129339;-54
2023/07/21 07:36:42;;;;;;;4.05;0.88;;;;;;;22.86;41.35;101047.00;16107790;19;130530;-52
2023/07/21 07:42:04;;;;;;;0.98;0.60;;;;;;;22.94;41.35;101049.28;16097161;19;130860;-51
2023/07/21 07:47:29;;;;;;;2.20;0.75;;;;;;;22.95;40.99;101050.97;16104920;19;130076;-49
2023/07/21 07:52:51;;;;;;;1.90;1.13;;;;;;;22.96;41.43;101052.66;16107903;19;130014;-54
2023/07/21 07:58:13;;;;;;;3.30;0.90;;;;;;;22.97;41.57;101056.28;16109534;19;129557;-54
2023/07/21 08:03:35;;;;;;;1.70;1.10;;;;;;;23.02;41.34;101050.72;16109355;19;129696;-49
2023/07/21 08:08:57;;;;;;;3.95;1.80;;;;;;;23.03;41.28;101053.22;16101604;19;130596;-52
2023/07/21 08:14:19;;;;;;;3.20;1.33;;;;;;;23.03;41.40;101058.81;16101507;19;129860;-48
2023/07/21 08:19:41;;;;;;;4.47;1.40;;;;;;;23.04;41.21;101060.50;16104915;19;130766;-50
2023/07/21 08:25:05;;;;;;;5.60;1.50;;;;;;;23.07;41.35;101053.53;16110890;19;130436;-49
2023/07/21 08:30:27;;;;;;;4.47;1.50;;;;;;;23.09;41.19;101054.09;16100863;19;130484;-50
2023/07/21 08:35:49;;;;;;;11.02;1.85;;;;;;;23.08;41.15;101059.94;16100394;19;129506;-53
2023/07/21 08:41:16;;;;;;;3.05;1.45;;;;;;;23.11;41.41;101065.00;16102224;19;130747;-54
2023/07/21 08:46:38;;;;;;;3.88;1.55;;;;;;;23.16;41.63;101062.19;16102015;19;129547;-51
2023/07/21 08:52:00;;;;;;;4.82;1.60;;;;;;;23.26;41.48;101066.97;16106754;19;131846;-48
2023/07/21 08:57:22;;;;;;;5.60;2.03;;;;;;;23.37;40.94;101063.09;16118490;19;129570;-48
2023/07/21 09:02:47;;;;;;;12.93;1.95;;;;;;;23.45;40.86;101053.34;16119992;19;129738;-49
2023/07/21 09:08:29;;;;;;;6.20;1.75;;;;;;;23.55;40.64;101044.97;16120940;19;130587;-47
2023/07/21 09:13:54;;;;;;;5.45;1.85;;;;;;;23.58;40.69;101038.88;16119402;19;129944;-50
2023/07/21 09:19:19;;;;;;;5.83;1.97;;;;;;;23.65;40.63;101027.44;16122716;19;129690;-47
2023/07/21 09:24:50;;;;;;;10.02;2.30;;;;;;;23.74;40.47;101024.94;16118234;19;129975;-48
2023/07/21 09:30:12;;;;;;;8.68;2.58;;;;;;;23.77;40.67;101038.31;16115596;19;130194;-46
2023/07/21 09:35:36;;;;;;;11.30;7.40;;;;;;;23.72;39.27;101029.97;16117128;19;131142;-50
2023/07/21 09:41:07;;;;;;;17.05;7.85;;;;;;;23.53;39.01;101038.84;16116885;19;129897;-48
2023/07/21 09:46:30;;;;;;;15.35;7.90;;;;;;;23.35;39.06;101032.69;16117878;19;129958;-48
2023/07/21 09:51:55;;;;;;;17.95;6.55;;;;;;;23.25;39.32;101043.81;16111299;19;131080;-48
2023/07/21 09:57:22;;;;;;;14.77;6.23;;;;;;;23.25;38.89;101043.81;16114950;19;129368;-47
2023/07/21 10:02:46;;;;;;;13.88;6.18;;;;;;;23.15;39.02;101038.19;16116905;19;130542;-51
2023/07/21 10:08:09;;;;;;;10.90;4.67;;;;;;;23.09;39.44;101044.88;16109346;19;130380;-50
2023/07/21 10:13:32;;;;;;;9.98;5.60;;;;;;;22.98;39.34;101078.34;16119617;19;129610;-50
2023/07/21 10:19:05;;;;;;;8.48;5.30;;;;;;;22.84;39.75;101080.72;16112265;19;129492;-49
2023/07/21 10:24:32;;;;;;;8.45;4.18;;;;;;;22.84;40.05;101079.91;16112437;19;130554;-50
2023/07/21 10:30:18;;;;;;;7.55;3.38;;;;;;;22.91;40.04;101080.53;16111422;19;131646;-51
2023/07/21 10:35:40;;;;;;;6.50;2.90;;;;;;;22.94;40.15;101079.16;16112964;19;134256;-45
2023/07/21 10:41:02;;;;;;;4.63;2.67;;;;;;;22.96;40.30;101100.09;16112532;19;129938;-44
2023/07/21 10:46:24;;;;;;;5.93;2.28;;;;;;;22.97;40.30;101109.28;16115079;19;130070;-47
2023/07/21 10:51:50;;;;;;;3.75;2.30;;;;;;;22.96;40.46;101115.97;16113249;19;130015;-45
2023/07/21 10:57:12;;;;;;;3.55;1.80;;;;;;;22.93;40.57;101125.72;16111175;19;130935;-53
2023/07/21 11:02:38;;;;;;;3.60;1.70;;;;;;;22.92;40.56;101118.47;16111080;19;129901;-49
2023/07/21 11:08:01;;;;;;;4.28;1.75;;;;;;;22.92;40.57;101112.06;16112279;19;131424;-45
2023/07/21 11:13:23;;;;;;;3.72;1.50;;;;;;;22.92;40.34;101118.47;16116550;19;129473;-52
2023/07/21 11:18:45;;;;;;;1.83;1.13;;;;;;;22.93;40.87;101120.16;16111416;19;130516;-48
2023/07/21 11:24:08;;;;;;;2.20;1.25;;;;;;;22.95;40.66;101112.34;16112871;19;129442;-56
2023/07/21 11:29:30;;;;;;;2.97;1.50;;;;;;;23.02;40.86;101118.50;16113102;19;130860;-53
2023/07/21 11:34:56;;;;;;;4.18;1.55;;;;;;;23.09;40.74;101114.66;16112699;19;129282;-50
2023/07/21 11:40:18;;;;;;;5.22;1.20;;;;;;;23.14;41.23;101121.09;16112307;19;130472;-50
2023/07/21 11:45:41;;;;;;;3.45;1.58;;;;;;;23.20;40.59;101114.41;16110153;19;130096;-50
2023/07/21 11:51:05;;;;;;;5.30;1.60;;;;;;;23.22;41.13;101119.72;16108261;19;130631;-50
2023/07/21 11:56:27;;;;;;;5.68;1.40;;;;;;;23.22;40.76;101128.09;16109735;19;129402;-49
2023/07/21 12:01:50;;;;;;;5.03;1.55;;;;;;;23.19;40.95;101123.06;16108562;19;129596;-48
2023/07/21 12:07:12;;;;;;;5.45;1.67;;;;;;;23.17;40.98;101125.28;16110282;19;129607;-50
2023/07/21 12:12:36;;;;;;;4.07;1.38;;;;;;;23.14;41.50;101123.88;16109103;19;130844;-49
2023/07/21 12:17:58;;;;;;;7.35;1.42;;;;;;;23.12;41.32;101116.91;16110452;19;130269;-48
2023/07/21 12:23:20;;;;;;;2.03;1.27;;;;;;;23.12;41.29;101116.91;16110157;19;133603;-50
2023/07/21 12:28:42;;;;;;;2.35;1.20;;;;;;;23.11;41.33;101115.22;16111870;19;129597;-51
2023/07/21 12:34:04;;;;;;;4.80;1.35;;;;;;;23.10;41.34;101119.94;16122255;19;129674;-51
2023/07/21 12:39:27;;;;;;;2.33;1.23;;;;;;;23.12;41.32;101111.31;16123280;19;130871;-50
2023/07/21 12:44:49;;;;;;;8.13;1.30;;;;;;;23.12;41.35;101116.91;16122565;19;130188;-43
2023/07/21 12:50:10;;;;;;;4.05;1.20;;;;;;;23.16;41.40;101126.38;16125592;19;129599;-51
2023/07/21 12:55:33;;;;;;;3.03;1.50;;;;;;;23.19;41.59;101131.44;16126650;19;130395;-44
2023/07/21 13:00:55;;;;;;;2.70;1.20;;;;;;;23.25;41.85;101121.13;16121216;19;133895;-49
2023/07/21 13:06:17;;;;;;;5.82;1.40;;;;;;;23.25;41.51;101124.78;16121454;19;129944;-46
2023/07/21 13:11:39;;;;;;;6.85;1.52;;;;;;;23.24;41.60;101136.19;16124606;19;129749;-46
2023/07/21 13:17:03;;;;;;;3.28;1.13;;;;;;;23.24;41.65;101142.63;16121585;19;131555;-46
2023/07/21 13:22:25;;;;;;;6.22;1.20;;;;;;;23.25;41.40;101138.72;16122760;19;129491;-43
2023/07/21 13:27:48;;;;;;;2.85;1.20;;;;;;;23.26;41.98;101129.25;16120438;19;129761;-44
2023/07/21 13:33:10;;;;;;;2.42;1.20;;;;;;;23.31;41.66;101129.25;16120015;19;130805;-52
2023/07/21 13:38:33;;;;;;;4.78;1.50;;;;;;;23.37;41.63;101127.31;16120434;19;129576;-49
2023/07/21 13:43:55;;;;;;;5.13;1.05;;;;;;;23.39;41.57;101121.44;16121236;19;129992;-49
2023/07/21 13:49:19;;;;;;;5.63;1.40;;;;;;;23.42;41.62;101126.47;16119493;19;129457;-51
2023/07/21 13:54:41;;;;;;;3.73;1.50;;;;;;;23.43;41.79;101129.03;16119260;19;129478;-52
2023/07/21 14:00:06;;;;;;;3.13;1.35;;;;;;;23.45;41.77;101115.59;16120269;19;129427;-48
2023/07/21 14:05:28;;;;;;;5.93;1.48;;;;;;;23.47;41.58;101129.31;16117373;19;131408;-42
2023/07/21 14:10:50;;;;;;;3.10;1.80;;;;;;;23.47;41.44;101132.91;16120673;19;130531;-48
2023/07/21 14:16:12;;;;;;;1.98;1.15;;;;;;;23.51;41.17;101144.38;16117020;19;129625;-52
2023/07/21 14:21:34;;;;;;;3.15;1.63;;;;;;;23.51;40.78;101141.59;16114176;19;129802;-53
2023/07/21 14:26:56;;;;;;;4.00;1.80;;;;;;;23.51;40.71;101136.84;16117259;19;130752;-45
2023/07/21 14:32:18;;;;;;;4.25;1.80;;;;;;;23.53;40.79;101139.34;16117084;19;130160;-43
2023/07/21 14:37:40;;;;;;;3.58;1.80;;;;;;;23.54;40.18;101141.03;16118429;19;132757;-56
2023/07/21 14:43:02;;;;;;;2.88;1.73;;;;;;;23.56;40.07;101149.16;16119403;19;129959;-55
2023/07/21 14:48:24;;;;;;;8.10;1.90;;;;;;;23.55;39.87;101153.88;16113277;19;130506;-52
2023/07/21 14:53:46;;;;;;;2.80;1.80;;;;;;;23.54;40.09;101157.78;16114432;19;129683;-51
2023/07/21 14:59:08;;;;;;;2.67;2.00;;;;;;;23.54;39.51;101155.00;16117316;19;130552;-51
2023/07/21 15:04:30;;;;;;;4.82;1.95;;;;;;;23.54;39.23;101168.13;16112976;19;130355;-52
2023/07/21 15:09:52;;;;;;;5.78;1.90;;;;;;;23.55;39.24;101153.88;16115222;19;131360;-49
2023/07/21 15:15:14;;;;;;;4.35;2.45;;;;;;;23.56;39.01;101177.09;16116610;19;131094;-47
2023/07/21 15:20:36;;;;;;;3.20;2.20;;;;;;;23.56;38.67;101177.91;16112108;19;129280;-46
2023/07/21 15:25:58;;;;;;;4.78;2.22;;;;;;;23.58;39.22;101183.22;16116493;19;130494;-45
2023/07/21 15:31:20;;;;;;;3.70;2.20;;;;;;;23.59;39.03;101182.13;16113425;19;130102;-49
2023/07/21 15:36:42;;;;;;;4.03;2.30;;;;;;;23.57;38.67;101181.56;16110815;19;129476;-48
2023/07/21 15:42:04;;;;;;;6.70;2.40;;;;;;;23.57;38.61;101184.34;16111619;19;130903;-49
2023/07/21 15:47:25;;;;;;;6.57;2.15;;;;;;;23.55;38.50;101181.81;16108978;19;129849;-46
2023/07/21 15:52:47;;;;;;;7.43;2.88;;;;;;;23.57;38.05;101196.34;16108428;19;130168;-43
2023/07/21 15:58:10;;;;;;;3.70;2.22;;;;;;;23.57;37.99;101182.38;16109683;19;129916;-47
2023/07/21 16:03:32;;;;;;;4.30;2.10;;;;;;;23.57;37.67;101184.34;16115827;19;129621;-46
2023/07/21 16:08:54;;;;;;;4.72;2.13;;;;;;;23.55;37.60;101187.41;16122855;19;130701;-45
2023/07/21 16:14:16;;;;;;;6.10;2.28;;;;;;;23.53;37.52;101197.19;16115693;19;131482;-48
2023/07/21 16:19:39;;;;;;;2.70;2.42;;;;;;;23.50;37.71;101204.16;16116181;19;129893;-48
2023/07/21 16:25:03;;;;;;;2.78;2.17;;;;;;;23.49;37.63;101205.25;16114151;19;130042;-51
2023/07/21 16:30:25;;;;;;;3.88;2.35;;;;;;;23.48;37.75;101210.00;16118286;19;130808;-48
2023/07/21 16:35:50;;;;;;;4.35;2.38;;;;;;;23.48;37.52;101209.16;16122563;19;131265;-46
2023/07/21 16:41:12;;;;;;;5.28;2.45;;;;;;;23.48;37.85;101214.75;16123253;19;130098;-45
2023/07/21 16:46:34;;;;;;;2.90;1.90;;;;;;;23.47;37.95;101210.28;16123752;19;131372;-51
2023/07/21 16:51:56;;;;;;;2.67;1.95;;;;;;;23.47;38.03;101211.09;16126004;19;130046;-48
2023/07/21 16:57:19;;;;;;;4.22;2.58;;;;;;;23.47;37.97;101216.69;16126098;19;129749;-47
2023/07/21 17:02:41;;;;;;;3.53;2.08;;;;;;;23.47;38.23;101224.25;16122735;19;130828;-48
2023/07/21 17:08:04;;;;;;;3.42;2.50;;;;;;;23.47;38.29;101218.66;16123223;19;129449;-46
2023/07/21 17:13:26;;;;;;;2.30;2.10;;;;;;;23.48;37.96;101225.91;16117988;19;129901;-46
2023/07/21 17:18:49;;;;;;;5.50;2.38;;;;;;;23.48;37.92;101231.50;16119627;19;131687;-50
2023/07/21 17:24:11;;;;;;;5.57;2.28;;;;;;;23.49;37.82;101244.34;16119244;19;129439;-48
2023/07/21 17:29:33;;;;;;;5.10;2.78;;;;;;;23.48;37.43;101242.69;16115265;19;130383;-47
2023/07/21 17:34:55;;;;;;;3.97;2.67;;;;;;;23.46;36.72;101233.72;16117811;19;134183;-52
2023/07/21 17:40:17;;;;;;;4.22;2.88;;;;;;;23.44;36.43;101258.28;16114338;19;131335;-45
2023/07/21 17:45:43;;;;;;;4.15;2.53;;;;;;;23.38;35.13;101249.03;16114604;19;130072;-45
2023/07/21 17:51:05;;;;;;;4.82;3.10;;;;;;;23.33;34.86;101254.59;16113187;19;131046;-47
2023/07/21 17:56:27;;;;;;;5.50;2.35;;;;;;;23.29;34.62;101257.09;16118160;19;130039;-49
2023/07/21 18:01:51;;;;;;;10.77;3.25;;;;;;;23.28;34.64;101249.81;16113819;19;129634;-44
2023/07/21 18:07:13;;;;;;;5.78;2.70;;;;;;;23.25;34.69;101253.16;16117806;19;130091;-48
2023/07/21 18:12:35;;;;;;;10.65;2.67;;;;;;;23.26;34.52;101257.66;16121074;19;130928;-49
2023/07/21 18:17:57;;;;;;;8.32;3.15;;;;;;;23.27;34.80;101264.88;16115894;19;129477;-44
2023/07/21 18:23:19;;;;;;;9.00;2.88;;;;;;;23.25;34.97;101255.97;16117953;19;130323;-48
2023/07/21 18:28:41;;;;;;;7.40;2.60;;;;;;;23.23;34.71;101260.97;16114409;19;129965;-47
2023/07/21 18:34:02;;;;;;;6.57;3.08;;;;;;;23.20;35.21;101258.72;16112427;19;130320;-48
2023/07/21 18:39:25;;;;;;;4.70;2.58;;;;;;;23.18;35.55;101261.78;16111782;19;130507;-45
2023/07/21 18:44:47;;;;;;;17.08;3.20;;;;;;;23.19;35.13;101274.63;16114433;19;130047;-49
2023/07/21 18:50:10;;;;;;;18.58;3.47;;;;;;;23.17;35.38;101282.44;16113062;19;131274;-51
2023/07/21 18:55:32;;;;;;;21.90;3.83;;;;;;;23.17;35.56;101265.69;16116122;19;129665;-49
2023/07/21 19:00:57;;;;;;;19.90;3.03;;;;;;;23.17;35.36;101276.84;16112678;19;129483;-47
2023/07/21 19:06:19;;;;;;;17.30;2.85;;;;;;;23.19;36.04;101284.94;16115426;19;129488;-52
2023/07/21 19:11:41;;;;;;;9.30;2.97;;;;;;;23.19;35.95;101282.16;16114629;19;129591;-49
2023/07/21 19:17:03;;;;;;;6.47;3.00;;;;;;;23.20;36.20;101286.63;16110233;19;129808;-51
2023/07/21 19:22:25;;;;;;;12.45;2.95;;;;;;;23.20;36.47;101286.63;16111122;19;130390;-52
2023/07/21 19:27:47;;;;;;;8.93;2.70;;;;;;;23.19;36.55;101296.09;16110953;19;129403;-46
2023/07/21 19:33:09;;;;;;;19.10;2.78;;;;;;;23.17;36.48;101304.75;16110081;19;129849;-48
2023/07/21 19:38:32;;;;;;;26.70;3.63;;;;;;;23.16;36.67;101308.66;16105727;19;131225;-50
2023/07/21 19:43:55;;;;;;;35.63;4.05;;;;;;;23.15;36.87;101301.38;16098552;19;130935;-49
2023/07/21 19:49:17;;;;;;;24.75;3.75;;;;;;;23.16;36.95;101318.97;16108090;19;130763;-53
2023/07/21 19:54:40;;;;;;;19.42;3.22;;;;;;;23.15;36.98;101322.84;16111788;19;130379;-50
2023/07/21 20:00:04;;;;;;;22.90;3.10;;;;;;;23.15;37.44;101322.84;16110110;19;129681;-48
2023/07/21 20:05:26;;;;;;;27.77;4.15;;;;;;;23.14;37.46;101321.19;16099475;19;130313;-50
2023/07/21 20:10:49;;;;;;;23.30;3.22;;;;;;;23.13;37.47;101330.69;16104209;19;129953;-50
2023/07/21 20:16:11;;;;;;;19.08;3.45;;;;;;;23.13;37.68;101347.44;16103506;19;130853;-50
2023/07/21 20:21:33;;;;;;;15.77;3.05;;;;;;;23.12;37.56;101346.56;16104900;19;129530;-53
2023/07/21 20:26:56;;;;;;;23.83;4.30;;;;;;;23.11;37.80;101350.47;16096512;19;130906;-47
2023/07/21 20:32:18;;;;;;;12.60;2.95;;;;;;;23.11;37.99;101355.22;16103665;19;130126;-49
2023/07/21 20:37:40;;;;;;;11.63;3.05;;;;;;;23.09;38.13;101352.69;16098713;19;131157;-50
2023/07/21 20:43:03;;;;;;;15.35;2.85;;;;;;;23.09;38.36;101351.84;16102258;19;130371;-51
2023/07/21 20:48:27;;;;;;;12.88;2.75;;;;;;;23.09;38.54;101357.44;16099422;19;130842;-44
2023/07/21 20:53:49;;;;;;;11.93;2.90;;;;;;;23.08;38.21;101353.78;16121207;19;129601;-44
2023/07/21 20:59:11;;;;;;;8.50;2.90;;;;;;;23.09;38.36;101361.03;16116392;19;129611;-46
2023/07/21 21:04:33;;;;;;;13.63;3.17;;;;;;;23.09;38.07;101363.00;16118127;19;130752;-47
2023/07/21 21:09:55;;;;;;;11.27;3.03;;;;;;;23.08;38.31;101362.16;16119321;19;131026;-47
2023/07/21 21:15:17;;;;;;;10.75;2.72;;;;;;;23.09;38.66;101363.00;16122168;19;129870;-48
2023/07/21 21:20:39;;;;;;;15.55;3.47;;;;;;;23.07;38.81;101373.59;16117246;19;130734;-47
2023/07/21 21:26:01;;;;;;;10.85;2.67;;;;;;;23.02;38.68;101366.84;16112495;19;131179;-45
2023/07/21 21:31:22;;;;;;;12.85;3.20;;;;;;;23.00;38.93;101383.03;16111985;19;131138;-47
2023/07/21 21:36:45;;;;;;;12.20;3.03;;;;;;;22.97;38.61;101372.41;16112769;19;130403;-46
2023/07/21 21:42:08;;;;;;;20.23;3.08;;;;;;;22.95;38.95;101374.63;16104160;19;132544;-51
2023/07/21 21:47:33;;;;;;;14.05;2.58;;;;;;;22.91;38.85;101376.25;16118824;19;129821;-52
2023/07/21 21:52:55;;;;;;;13.77;2.50;;;;;;;22.89;39.00;101375.66;16118007;19;132243;-53
2023/07/21 21:58:17;;;;;;;11.95;2.58;;;;;;;22.87;39.06;101372.28;16110422;19;129734;-53
2023/07/21 22:03:41;;;;;;;9.48;2.35;;;;;;;22.85;38.82;101374.50;16120666;19;130295;-54
2023/07/21 22:09:04;;;;;;;8.17;2.50;;;;;;;22.83;39.24;101377.53;16117443;19;129736;-48
2023/07/21 22:14:26;;;;;;;10.27;2.70;;;;;;;22.81;39.32;101379.75;16096601;19;129871;-49
2023/07/21 22:19:49;;;;;;;10.85;2.63;;;;;;;22.80;38.97;101382.78;16112040;19;129549;-49
2023/07/21 22:25:29;;;;;;;8.57;2.72;;;;;;;22.79;39.20;101372.75;16109713;19;129627;-45
2023/07/21 22:30:51;;;;;;;10.30;2.58;;;;;;;22.78;38.88;101368.28;16113645;19;129455;-48
2023/07/21 22:36:13;;;;;;;11.48;2.50;;;;;;;22.74;39.30;101371.59;16114743;19;131205;-48
2023/07/21 22:41:35;;;;;;;10.75;2.65;;;;;;;22.73;39.29;101369.06;16111304;19;131595;-49
2023/07/21 22:46:58;;;;;;;6.32;2.40;;;;;;;22.72;39.39;101370.16;16111304;19;129874;-49
2023/07/21 22:52:20;;;;;;;6.35;2.00;;;;;;;22.70;39.02;101378.81;16112018;19;131049;-47
2023/07/21 22:57:42;;;;;;;5.38;2.53;;;;;;;22.69;39.43;101373.50;16112840;19;129723;-47
2023/07/21 23:03:04;;;;;;;4.53;2.25;;;;;;;22.68;39.44;101383.81;16106980;19;131614;-45
2023/07/21 23:08:26;;;;;;;5.53;2.35;;;;;;;22.68;39.57;101396.91;16110170;19;129565;-45
2023/07/21 23:13:48;;;;;;;8.55;2.60;;;;;;;22.66;39.40;101399.94;16109591;19;129501;-52
2023/07/21 23:19:10;;;;;;;6.47;2.78;;;;;;;22.64;39.80;101399.41;16110485;19;130929;-47
2023/07/21 23:24:32;;;;;;;7.05;2.00;;;;;;;22.63;39.85;101394.06;16109577;19;130116;-45
2023/07/21 23:29:54;;;;;;;4.75;2.00;;;;;;;22.62;39.63;101396.03;16104093;19;130664;-50
2023/07/21 23:35:16;;;;;;;6.47;2.10;;;;;;;22.61;39.24;101385.13;16104225;19;129622;-48
2023/07/21 23:40:38;;;;;;;4.97;2.05;;;;;;;22.61;39.49;101388.75;16109146;19;130068;-50
2023/07/21 23:46:00;;;;;;;7.57;2.55;;;;;;;22.58;39.86;101381.78;16110597;19;132291;-44
2023/07/21 23:51:22;;;;;;;6.30;2.03;;;;;;;22.56;39.86;101378.41;16104519;19;129766;-50
2023/07/21 23:56:44;;;;;;;5.28;1.98;;;;;;;22.55;39.87;101387.88;16107219;19;130176;-48
